sensor_id;sensor_type;location;lat;lon;timestamp;P1;durP1;ratioP1;P2;durP2;ratioP2
5543;SDS011;2795;47.652;13.128;2023-07-02T00:02:04;10.53;;;3.47;;
5543;SDS011;2795;47.652;13.128;2023-07-02T00:04:31;9.50;;;3.60;;
5543;SDS011;2795;47.652;13.128;2023-07-02T00:06:57;11.07;;;3.67;;
5543;SDS011;2795;47.652;13.128;2023-07-02T00:09:24;7.73;;;3.17;;
5543;SDS011;2795;47.652;13.128;2023-07-02T00:11:51;8.53;;;3.37;;
5543;SDS011;2795;47.652;13.128;2023-07-02T00:14:17;14.53;;;3.70;;
5543;SDS011;2795;47.652;13.128;2023-07-02T00:16:45;12.10;;;3.80;;
5543;SDS011;2795;47.652;13.128;2023-07-02T00:19:13;6.97;;;3.33;;
5543;SDS011;2795;47.652;13.128;2023-07-02T00:21:40;9.40;;;3.33;;
5543;SDS011;2795;47.652;13.128;2023-07-02T00:24:08;10.33;;;3.63;;
5543;SDS011;2795;47.652;13.128;2023-07-02T00:26:36;6.83;;;3.43;;
5543;SDS011;2795;47.652;13.128;2023-07-02T00:29:04;13.97;;;3.90;;
5543;SDS011;2795;47.652;13.128;2023-07-02T00:31:32;9.70;;;3.37;;
5543;SDS011;2795;47.652;13.128;2023-07-02T00:34:00;9.90;;;3.70;;
5543;SDS011;2795;47.652;13.128;2023-07-02T00:36:27;6.23;;;2.90;;
5543;SDS011;2795;47.652;13.128;2023-07-02T00:38:55;12.43;;;3.70;;
5543;SDS011;2795;47.652;13.128;2023-07-02T00:41:22;8.27;;;3.53;;
5543;SDS011;2795;47.652;13.128;2023-07-02T00:43:48;12.80;;;3.17;;
5543;SDS011;2795;47.652;13.128;2023-07-02T00:46:16;14.77;;;3.67;;
5543;SDS011;2795;47.652;13.128;2023-07-02T00:48:44;11.63;;;3.90;;
5543;SDS011;2795;47.652;13.128;2023-07-02T00:51:16;11.67;;;3.73;;
5543;SDS011;2795;47.652;13.128;2023-07-02T00:53:45;11.67;;;3.47;;
5543;SDS011;2795;47.652;13.128;2023-07-02T00:56:12;18.50;;;4.73;;
5543;SDS011;2795;47.652;13.128;2023-07-02T00:58:40;9.70;;;3.70;;
5543;SDS011;2795;47.652;13.128;2023-07-02T01:01:15;11.73;;;4.23;;
5543;SDS011;2795;47.652;13.128;2023-07-02T01:03:52;9.30;;;3.73;;
5543;SDS011;2795;47.652;13.128;2023-07-02T01:06:26;6.90;;;3.03;;
5543;SDS011;2795;47.652;13.128;2023-07-02T01:08:55;10.30;;;3.87;;
5543;SDS011;2795;47.652;13.128;2023-07-02T01:11:24;9.93;;;4.00;;
5543;SDS011;2795;47.652;13.128;2023-07-02T01:13:53;14.80;;;4.53;;
5543;SDS011;2795;47.652;13.128;2023-07-02T01:16:23;9.47;;;3.60;;
5543;SDS011;2795;47.652;13.128;2023-07-02T01:18:50;9.60;;;3.30;;
5543;SDS011;2795;47.652;13.128;2023-07-02T01:21:21;9.70;;;3.63;;
5543;SDS011;2795;47.652;13.128;2023-07-02T01:23:50;10.13;;;3.20;;
5543;SDS011;2795;47.652;13.128;2023-07-02T01:26:17;6.40;;;3.40;;
5543;SDS011;2795;47.652;13.128;2023-07-02T01:28:44;8.50;;;3.87;;
5543;SDS011;2795;47.652;13.128;2023-07-02T01:31:10;10.93;;;3.83;;
5543;SDS011;2795;47.652;13.128;2023-07-02T01:33:37;12.17;;;3.50;;
5543;SDS011;2795;47.652;13.128;2023-07-02T01:36:04;10.00;;;4.07;;
5543;SDS011;2795;47.652;13.128;2023-07-02T01:38:31;6.97;;;3.40;;
5543;SDS011;2795;47.652;13.128;2023-07-02T01:40:58;8.50;;;3.63;;
5543;SDS011;2795;47.652;13.128;2023-07-02T01:43:24;14.73;;;5.00;;
5543;SDS011;2795;47.652;13.128;2023-07-02T01:45:51;9.10;;;4.00;;
5543;SDS011;2795;47.652;13.128;2023-07-02T01:48:18;10.67;;;4.00;;
5543;SDS011;2795;47.652;13.128;2023-07-02T01:50:44;7.30;;;3.70;;
5543;SDS011;2795;47.652;13.128;2023-07-02T01:53:12;5.70;;;3.63;;
5543;SDS011;2795;47.652;13.128;2023-07-02T01:55:38;13.33;;;4.03;;
5543;SDS011;2795;47.652;13.128;2023-07-02T01:58:05;7.70;;;4.00;;
5543;SDS011;2795;47.652;13.128;2023-07-02T02:00:32;20.63;;;5.40;;
5543;SDS011;2795;47.652;13.128;2023-07-02T02:02:58;11.70;;;4.20;;
5543;SDS011;2795;47.652;13.128;2023-07-02T02:05:25;11.07;;;4.30;;
5543;SDS011;2795;47.652;13.128;2023-07-02T02:07:52;11.93;;;3.93;;
5543;SDS011;2795;47.652;13.128;2023-07-02T02:10:18;9.73;;;4.13;;
5543;SDS011;2795;47.652;13.128;2023-07-02T02:12:45;12.33;;;4.60;;
5543;SDS011;2795;47.652;13.128;2023-07-02T02:15:13;11.60;;;4.10;;
5543;SDS011;2795;47.652;13.128;2023-07-02T02:17:40;16.70;;;4.23;;
5543;SDS011;2795;47.652;13.128;2023-07-02T02:20:07;9.57;;;3.87;;
5543;SDS011;2795;47.652;13.128;2023-07-02T02:22:35;11.13;;;4.53;;
5543;SDS011;2795;47.652;13.128;2023-07-02T02:25:01;12.77;;;4.30;;
5543;SDS011;2795;47.652;13.128;2023-07-02T02:27:30;13.10;;;4.73;;
5543;SDS011;2795;47.652;13.128;2023-07-02T02:29:56;13.43;;;4.90;;
5543;SDS011;2795;47.652;13.128;2023-07-02T02:32:23;11.63;;;4.20;;
5543;SDS011;2795;47.652;13.128;2023-07-02T02:34:50;10.13;;;4.30;;
5543;SDS011;2795;47.652;13.128;2023-07-02T02:37:18;15.50;;;5.30;;
5543;SDS011;2795;47.652;13.128;2023-07-02T02:39:44;19.57;;;5.07;;
5543;SDS011;2795;47.652;13.128;2023-07-02T02:42:11;16.60;;;4.10;;
5543;SDS011;2795;47.652;13.128;2023-07-02T02:44:38;6.70;;;3.77;;
5543;SDS011;2795;47.652;13.128;2023-07-02T02:47:05;9.90;;;4.30;;
5543;SDS011;2795;47.652;13.128;2023-07-02T02:49:31;9.23;;;4.00;;
5543;SDS011;2795;47.652;13.128;2023-07-02T02:51:58;10.70;;;4.70;;
5543;SDS011;2795;47.652;13.128;2023-07-02T02:54:25;17.40;;;5.10;;
5543;SDS011;2795;47.652;13.128;2023-07-02T02:56:51;15.13;;;4.40;;
5543;SDS011;2795;47.652;13.128;2023-07-02T02:59:18;10.50;;;3.73;;
5543;SDS011;2795;47.652;13.128;2023-07-02T03:01:44;9.13;;;4.10;;
5543;SDS011;2795;47.652;13.128;2023-07-02T03:04:11;10.43;;;3.20;;
5543;SDS011;2795;47.652;13.128;2023-07-02T03:06:39;7.87;;;4.00;;
5543;SDS011;2795;47.652;13.128;2023-07-02T03:09:05;15.50;;;4.23;;
5543;SDS011;2795;47.652;13.128;2023-07-02T03:11:32;6.20;;;3.30;;
5543;SDS011;2795;47.652;13.128;2023-07-02T03:13:59;7.60;;;3.70;;
5543;SDS011;2795;47.652;13.128;2023-07-02T03:16:25;14.20;;;4.57;;
5543;SDS011;2795;47.652;13.128;2023-07-02T03:18:52;9.60;;;4.10;;
5543;SDS011;2795;47.652;13.128;2023-07-02T03:21:18;15.27;;;5.13;;
5543;SDS011;2795;47.652;13.128;2023-07-02T03:23:45;13.50;;;4.80;;
5543;SDS011;2795;47.652;13.128;2023-07-02T03:26:12;9.07;;;4.23;;
5543;SDS011;2795;47.652;13.128;2023-07-02T03:28:38;8.77;;;4.00;;
5543;SDS011;2795;47.652;13.128;2023-07-02T03:31:05;11.83;;;4.40;;
5543;SDS011;2795;47.652;13.128;2023-07-02T03:33:32;7.70;;;3.73;;
5543;SDS011;2795;47.652;13.128;2023-07-02T03:35:59;10.63;;;4.43;;
5543;SDS011;2795;47.652;13.128;2023-07-02T03:38:26;10.70;;;4.07;;
5543;SDS011;2795;47.652;13.128;2023-07-02T03:40:52;11.13;;;4.40;;
5543;SDS011;2795;47.652;13.128;2023-07-02T03:43:19;19.47;;;5.40;;
5543;SDS011;2795;47.652;13.128;2023-07-02T03:45:45;10.43;;;4.30;;
5543;SDS011;2795;47.652;13.128;2023-07-02T03:48:12;10.73;;;4.63;;
5543;SDS011;2795;47.652;13.128;2023-07-02T03:50:39;8.97;;;4.33;;
5543;SDS011;2795;47.652;13.128;2023-07-02T03:53:05;11.63;;;4.43;;
5543;SDS011;2795;47.652;13.128;2023-07-02T03:55:32;7.53;;;4.30;;
5543;SDS011;2795;47.652;13.128;2023-07-02T03:57:58;11.07;;;4.63;;
5543;SDS011;2795;47.652;13.128;2023-07-02T04:00:25;12.83;;;4.80;;
5543;SDS011;2795;47.652;13.128;2023-07-02T04:02:52;10.17;;;4.60;;
5543;SDS011;2795;47.652;13.128;2023-07-02T04:05:18;9.07;;;3.97;;
5543;SDS011;2795;47.652;13.128;2023-07-02T04:07:46;12.63;;;4.47;;
5543;SDS011;2795;47.652;13.128;2023-07-02T04:10:12;6.83;;;3.47;;
5543;SDS011;2795;47.652;13.128;2023-07-02T04:12:39;11.40;;;4.40;;
5543;SDS011;2795;47.652;13.128;2023-07-02T04:15:06;11.03;;;3.87;;
5543;SDS011;2795;47.652;13.128;2023-07-02T04:17:34;14.83;;;4.20;;
5543;SDS011;2795;47.652;13.128;2023-07-02T04:20:01;9.80;;;4.20;;
5543;SDS011;2795;47.652;13.128;2023-07-02T04:22:30;10.40;;;4.00;;
5543;SDS011;2795;47.652;13.128;2023-07-02T04:24:56;11.33;;;4.27;;
5543;SDS011;2795;47.652;13.128;2023-07-02T04:27:37;20.10;;;4.97;;
5543;SDS011;2795;47.652;13.128;2023-07-02T04:30:16;19.83;;;5.13;;
5543;SDS011;2795;47.652;13.128;2023-07-02T04:32:43;10.20;;;4.60;;
5543;SDS011;2795;47.652;13.128;2023-07-02T04:35:10;12.97;;;4.87;;
5543;SDS011;2795;47.652;13.128;2023-07-02T04:37:37;16.77;;;5.60;;
5543;SDS011;2795;47.652;13.128;2023-07-02T04:40:05;16.13;;;5.50;;
5543;SDS011;2795;47.652;13.128;2023-07-02T04:42:37;16.93;;;5.97;;
5543;SDS011;2795;47.652;13.128;2023-07-02T04:45:04;8.93;;;4.43;;
5543;SDS011;2795;47.652;13.128;2023-07-02T04:47:31;14.13;;;4.80;;
5543;SDS011;2795;47.652;13.128;2023-07-02T04:49:58;11.60;;;4.10;;
5543;SDS011;2795;47.652;13.128;2023-07-02T04:52:25;10.90;;;4.57;;
5543;SDS011;2795;47.652;13.128;2023-07-02T04:54:52;6.80;;;3.80;;
5543;SDS011;2795;47.652;13.128;2023-07-02T04:57:19;9.50;;;4.43;;
5543;SDS011;2795;47.652;13.128;2023-07-02T04:59:46;11.20;;;4.80;;
5543;SDS011;2795;47.652;13.128;2023-07-02T05:02:12;8.93;;;4.13;;
5543;SDS011;2795;47.652;13.128;2023-07-02T05:04:39;9.10;;;4.23;;
5543;SDS011;2795;47.652;13.128;2023-07-02T05:07:06;8.03;;;3.90;;
5543;SDS011;2795;47.652;13.128;2023-07-02T05:09:32;11.60;;;5.33;;
5543;SDS011;2795;47.652;13.128;2023-07-02T05:11:59;14.90;;;5.67;;
5543;SDS011;2795;47.652;13.128;2023-07-02T05:14:25;12.60;;;5.60;;
5543;SDS011;2795;47.652;13.128;2023-07-02T05:16:52;11.60;;;5.20;;
5543;SDS011;2795;47.652;13.128;2023-07-02T05:19:19;11.93;;;5.83;;
5543;SDS011;2795;47.652;13.128;2023-07-02T05:21:45;10.27;;;5.60;;
5543;SDS011;2795;47.652;13.128;2023-07-02T05:24:12;8.93;;;5.67;;
5543;SDS011;2795;47.652;13.128;2023-07-02T05:26:38;10.03;;;4.50;;
5543;SDS011;2795;47.652;13.128;2023-07-02T05:29:05;9.50;;;5.17;;
5543;SDS011;2795;47.652;13.128;2023-07-02T05:31:32;12.93;;;5.33;;
5543;SDS011;2795;47.652;13.128;2023-07-02T05:34:00;11.60;;;5.03;;
5543;SDS011;2795;47.652;13.128;2023-07-02T05:36:27;10.77;;;4.60;;
5543;SDS011;2795;47.652;13.128;2023-07-02T05:38:54;15.80;;;5.10;;
5543;SDS011;2795;47.652;13.128;2023-07-02T05:41:21;13.07;;;4.87;;
5543;SDS011;2795;47.652;13.128;2023-07-02T05:43:48;13.10;;;4.53;;
5543;SDS011;2795;47.652;13.128;2023-07-02T05:46:15;18.50;;;5.47;;
5543;SDS011;2795;47.652;13.128;2023-07-02T05:48:41;9.63;;;4.40;;
5543;SDS011;2795;47.652;13.128;2023-07-02T05:51:08;13.50;;;4.53;;
5543;SDS011;2795;47.652;13.128;2023-07-02T05:53:36;5.90;;;3.50;;
5543;SDS011;2795;47.652;13.128;2023-07-02T05:56:03;11.63;;;4.27;;
5543;SDS011;2795;47.652;13.128;2023-07-02T05:58:30;10.93;;;4.43;;
5543;SDS011;2795;47.652;13.128;2023-07-02T06:01:12;9.20;;;4.17;;
5543;SDS011;2795;47.652;13.128;2023-07-02T06:03:40;8.90;;;4.60;;
5543;SDS011;2795;47.652;13.128;2023-07-02T06:06:07;10.00;;;4.60;;
5543;SDS011;2795;47.652;13.128;2023-07-02T06:08:33;9.73;;;4.60;;
5543;SDS011;2795;47.652;13.128;2023-07-02T06:11:00;10.93;;;5.13;;
5543;SDS011;2795;47.652;13.128;2023-07-02T06:13:26;11.50;;;5.10;;
5543;SDS011;2795;47.652;13.128;2023-07-02T06:15:53;13.23;;;4.63;;
5543;SDS011;2795;47.652;13.128;2023-07-02T06:18:20;13.90;;;4.73;;
5543;SDS011;2795;47.652;13.128;2023-07-02T06:20:47;17.33;;;5.27;;
5543;SDS011;2795;47.652;13.128;2023-07-02T06:23:14;14.47;;;5.10;;
5543;SDS011;2795;47.652;13.128;2023-07-02T06:25:40;8.83;;;4.47;;
5543;SDS011;2795;47.652;13.128;2023-07-02T06:28:07;9.67;;;4.80;;
5543;SDS011;2795;47.652;13.128;2023-07-02T06:30:34;13.93;;;5.47;;
5543;SDS011;2795;47.652;13.128;2023-07-02T06:33:00;13.97;;;6.37;;
5543;SDS011;2795;47.652;13.128;2023-07-02T06:35:27;15.40;;;7.43;;
5543;SDS011;2795;47.652;13.128;2023-07-02T06:37:54;18.20;;;9.10;;
5543;SDS011;2795;47.652;13.128;2023-07-02T06:40:21;11.83;;;4.83;;
5543;SDS011;2795;47.652;13.128;2023-07-02T06:42:48;11.87;;;4.87;;
5543;SDS011;2795;47.652;13.128;2023-07-02T06:45:15;14.93;;;4.77;;
5543;SDS011;2795;47.652;13.128;2023-07-02T06:47:42;12.90;;;5.03;;
5543;SDS011;2795;47.652;13.128;2023-07-02T06:50:08;9.10;;;4.60;;
5543;SDS011;2795;47.652;13.128;2023-07-02T06:52:35;14.37;;;4.53;;
5543;SDS011;2795;47.652;13.128;2023-07-02T06:55:03;14.47;;;4.97;;
5543;SDS011;2795;47.652;13.128;2023-07-02T06:57:30;16.80;;;6.50;;
5543;SDS011;2795;47.652;13.128;2023-07-02T06:59:59;11.10;;;5.20;;
5543;SDS011;2795;47.652;13.128;2023-07-02T07:02:27;14.07;;;6.20;;
5543;SDS011;2795;47.652;13.128;2023-07-02T07:04:54;5.87;;;4.00;;
5543;SDS011;2795;47.652;13.128;2023-07-02T07:07:20;13.33;;;4.97;;
5543;SDS011;2795;47.652;13.128;2023-07-02T07:09:47;7.50;;;4.50;;
5543;SDS011;2795;47.652;13.128;2023-07-02T07:12:14;16.53;;;4.97;;
5543;SDS011;2795;47.652;13.128;2023-07-02T07:14:40;12.13;;;4.30;;
5543;SDS011;2795;47.652;13.128;2023-07-02T07:17:07;9.83;;;4.30;;
5543;SDS011;2795;47.652;13.128;2023-07-02T07:19:35;19.67;;;5.07;;
5543;SDS011;2795;47.652;13.128;2023-07-02T07:22:01;16.83;;;6.93;;
5543;SDS011;2795;47.652;13.128;2023-07-02T07:24:28;14.13;;;4.70;;
5543;SDS011;2795;47.652;13.128;2023-07-02T07:26:55;10.80;;;5.00;;
5543;SDS011;2795;47.652;13.128;2023-07-02T07:29:21;12.37;;;4.77;;
5543;SDS011;2795;47.652;13.128;2023-07-02T07:31:48;7.20;;;3.90;;
5543;SDS011;2795;47.652;13.128;2023-07-02T07:34:15;12.23;;;4.47;;
5543;SDS011;2795;47.652;13.128;2023-07-02T07:36:41;10.00;;;4.50;;
5543;SDS011;2795;47.652;13.128;2023-07-02T07:39:08;10.17;;;4.73;;
5543;SDS011;2795;47.652;13.128;2023-07-02T07:41:34;12.93;;;4.60;;
5543;SDS011;2795;47.652;13.128;2023-07-02T07:44:01;16.73;;;5.30;;
5543;SDS011;2795;47.652;13.128;2023-07-02T07:46:27;14.93;;;5.00;;
5543;SDS011;2795;47.652;13.128;2023-07-02T07:48:54;9.63;;;4.37;;
5543;SDS011;2795;47.652;13.128;2023-07-02T07:51:21;11.93;;;5.00;;
5543;SDS011;2795;47.652;13.128;2023-07-02T07:53:47;8.30;;;4.40;;
5543;SDS011;2795;47.652;13.128;2023-07-02T07:56:14;12.87;;;5.43;;
5543;SDS011;2795;47.652;13.128;2023-07-02T07:58:41;8.80;;;4.30;;
5543;SDS011;2795;47.652;13.128;2023-07-02T08:01:07;8.50;;;4.30;;
5543;SDS011;2795;47.652;13.128;2023-07-02T08:03:36;13.97;;;4.63;;
5543;SDS011;2795;47.652;13.128;2023-07-02T08:06:04;12.50;;;4.33;;
5543;SDS011;2795;47.652;13.128;2023-07-02T08:08:31;7.40;;;4.13;;
5543;SDS011;2795;47.652;13.128;2023-07-02T08:10:57;14.93;;;5.20;;
5543;SDS011;2795;47.652;13.128;2023-07-02T08:13:24;8.37;;;4.73;;
5543;SDS011;2795;47.652;13.128;2023-07-02T08:15:50;9.00;;;4.43;;
5543;SDS011;2795;47.652;13.128;2023-07-02T08:18:17;10.23;;;4.53;;
5543;SDS011;2795;47.652;13.128;2023-07-02T08:20:44;11.83;;;4.47;;
5543;SDS011;2795;47.652;13.128;2023-07-02T08:23:10;8.40;;;4.20;;
5543;SDS011;2795;47.652;13.128;2023-07-02T08:25:38;7.63;;;3.97;;
5543;SDS011;2795;47.652;13.128;2023-07-02T08:28:04;12.20;;;4.90;;
5543;SDS011;2795;47.652;13.128;2023-07-02T08:30:31;10.73;;;5.20;;
5543;SDS011;2795;47.652;13.128;2023-07-02T08:32:57;13.60;;;5.57;;
5543;SDS011;2795;47.652;13.128;2023-07-02T08:35:24;13.60;;;5.80;;
5543;SDS011;2795;47.652;13.128;2023-07-02T08:37:50;10.00;;;5.20;;
5543;SDS011;2795;47.652;13.128;2023-07-02T08:40:17;17.17;;;5.77;;
5543;SDS011;2795;47.652;13.128;2023-07-02T08:42:45;10.07;;;4.47;;
5543;SDS011;2795;47.652;13.128;2023-07-02T08:45:16;9.00;;;5.00;;
5543;SDS011;2795;47.652;13.128;2023-07-02T08:47:44;9.43;;;4.43;;
5543;SDS011;2795;47.652;13.128;2023-07-02T08:50:12;12.97;;;4.63;;
5543;SDS011;2795;47.652;13.128;2023-07-02T08:52:39;8.67;;;4.70;;
5543;SDS011;2795;47.652;13.128;2023-07-02T08:55:06;12.33;;;5.00;;
5543;SDS011;2795;47.652;13.128;2023-07-02T08:57:34;7.80;;;3.87;;
5543;SDS011;2795;47.652;13.128;2023-07-02T09:00:07;9.33;;;4.03;;
5543;SDS011;2795;47.652;13.128;2023-07-02T09:02:35;7.60;;;4.00;;
5543;SDS011;2795;47.652;13.128;2023-07-02T09:05:03;7.83;;;3.60;;
5543;SDS011;2795;47.652;13.128;2023-07-02T09:07:30;17.40;;;4.20;;
5543;SDS011;2795;47.652;13.128;2023-07-02T09:09:57;14.57;;;4.63;;
5543;SDS011;2795;47.652;13.128;2023-07-02T09:12:29;10.50;;;4.30;;
5543;SDS011;2795;47.652;13.128;2023-07-02T09:14:58;15.30;;;5.00;;
5543;SDS011;2795;47.652;13.128;2023-07-02T09:17:30;8.67;;;3.73;;
5543;SDS011;2795;47.652;13.128;2023-07-02T09:19:58;8.77;;;3.70;;
5543;SDS011;2795;47.652;13.128;2023-07-02T09:22:28;5.70;;;3.60;;
5543;SDS011;2795;47.652;13.128;2023-07-02T09:24:56;7.00;;;3.70;;
5543;SDS011;2795;47.652;13.128;2023-07-02T09:27:37;10.17;;;3.90;;
5543;SDS011;2795;47.652;13.128;2023-07-02T09:30:13;7.03;;;3.40;;
5543;SDS011;2795;47.652;13.128;2023-07-02T09:32:43;8.83;;;4.17;;
5543;SDS011;2795;47.652;13.128;2023-07-02T09:35:11;9.33;;;4.03;;
5543;SDS011;2795;47.652;13.128;2023-07-02T09:37:38;10.53;;;4.23;;
5543;SDS011;2795;47.652;13.128;2023-07-02T09:40:06;10.83;;;4.10;;
5543;SDS011;2795;47.652;13.128;2023-07-02T09:42:35;19.37;;;4.40;;
5543;SDS011;2795;47.652;13.128;2023-07-02T09:45:03;8.10;;;4.07;;
5543;SDS011;2795;47.652;13.128;2023-07-02T09:47:35;11.87;;;4.33;;
5543;SDS011;2795;47.652;13.128;2023-07-02T09:50:06;12.27;;;4.40;;
5543;SDS011;2795;47.652;13.128;2023-07-02T09:52:33;7.70;;;3.97;;
5543;SDS011;2795;47.652;13.128;2023-07-02T09:55:00;9.03;;;3.70;;
5543;SDS011;2795;47.652;13.128;2023-07-02T09:57:28;8.40;;;4.10;;
5543;SDS011;2795;47.652;13.128;2023-07-02T10:00:01;10.40;;;4.20;;
5543;SDS011;2795;47.652;13.128;2023-07-02T10:02:28;10.73;;;4.20;;
5543;SDS011;2795;47.652;13.128;2023-07-02T10:04:55;8.80;;;3.93;;
5543;SDS011;2795;47.652;13.128;2023-07-02T10:07:25;9.73;;;3.97;;
5543;SDS011;2795;47.652;13.128;2023-07-02T10:09:53;9.07;;;3.77;;
5543;SDS011;2795;47.652;13.128;2023-07-02T10:14:51;6.77;;;3.30;;
5543;SDS011;2795;47.652;13.128;2023-07-02T10:17:28;8.77;;;3.50;;
5543;SDS011;2795;47.652;13.128;2023-07-02T10:19:59;6.47;;;3.33;;
5543;SDS011;2795;47.652;13.128;2023-07-02T10:22:27;7.67;;;3.50;;
5543;SDS011;2795;47.652;13.128;2023-07-02T10:24:54;11.73;;;3.53;;
5543;SDS011;2795;47.652;13.128;2023-07-02T10:27:34;9.53;;;3.37;;
5543;SDS011;2795;47.652;13.128;2023-07-02T10:30:05;7.53;;;3.57;;
5543;SDS011;2795;47.652;13.128;2023-07-02T10:32:37;11.00;;;4.10;;
5543;SDS011;2795;47.652;13.128;2023-07-02T10:35:14;10.33;;;4.10;;
5543;SDS011;2795;47.652;13.128;2023-07-02T10:37:42;10.90;;;4.50;;
5543;SDS011;2795;47.652;13.128;2023-07-02T10:40:09;7.70;;;3.87;;
5543;SDS011;2795;47.652;13.128;2023-07-02T10:42:46;10.00;;;4.93;;
5543;SDS011;2795;47.652;13.128;2023-07-02T10:45:13;8.90;;;4.70;;
5543;SDS011;2795;47.652;13.128;2023-07-02T10:47:40;9.90;;;4.50;;
5543;SDS011;2795;47.652;13.128;2023-07-02T10:50:41;7.63;;;4.00;;
5543;SDS011;2795;47.652;13.128;2023-07-02T10:53:00;10.03;;;4.00;;
5543;SDS011;2795;47.652;13.128;2023-07-02T10:55:27;9.77;;;4.27;;
5543;SDS011;2795;47.652;13.128;2023-07-02T10:58:04;16.13;;;4.80;;
5543;SDS011;2795;47.652;13.128;2023-07-02T11:00:32;8.47;;;3.97;;
5543;SDS011;2795;47.652;13.128;2023-07-02T11:03:15;8.03;;;3.20;;
5543;SDS011;2795;47.652;13.128;2023-07-02T11:05:46;8.77;;;4.00;;
5543;SDS011;2795;47.652;13.128;2023-07-02T11:08:14;13.73;;;4.23;;
5543;SDS011;2795;47.652;13.128;2023-07-02T11:10:41;12.03;;;3.93;;
5543;SDS011;2795;47.652;13.128;2023-07-02T11:13:12;9.33;;;4.27;;
5543;SDS011;2795;47.652;13.128;2023-07-02T11:15:38;8.50;;;3.50;;
5543;SDS011;2795;47.652;13.128;2023-07-02T11:18:11;8.30;;;3.50;;
5543;SDS011;2795;47.652;13.128;2023-07-02T11:20:39;7.33;;;3.60;;
5543;SDS011;2795;47.652;13.128;2023-07-02T11:23:16;8.40;;;3.43;;
5543;SDS011;2795;47.652;13.128;2023-07-02T11:26:00;6.63;;;2.87;;
5543;SDS011;2795;47.652;13.128;2023-07-02T11:28:30;6.57;;;2.90;;
5543;SDS011;2795;47.652;13.128;2023-07-02T11:30:58;9.50;;;3.90;;
5543;SDS011;2795;47.652;13.128;2023-07-02T11:33:42;9.50;;;3.40;;
5543;SDS011;2795;47.652;13.128;2023-07-02T11:36:19;6.50;;;3.10;;
5543;SDS011;2795;47.652;13.128;2023-07-02T11:38:47;7.57;;;3.27;;
5543;SDS011;2795;47.652;13.128;2023-07-02T11:41:14;7.60;;;3.60;;
5543;SDS011;2795;47.652;13.128;2023-07-02T11:43:42;6.90;;;3.07;;
5543;SDS011;2795;47.652;13.128;2023-07-02T11:46:08;5.87;;;2.90;;
5543;SDS011;2795;47.652;13.128;2023-07-02T11:48:35;9.47;;;3.40;;
5543;SDS011;2795;47.652;13.128;2023-07-02T11:51:02;8.80;;;3.30;;
5543;SDS011;2795;47.652;13.128;2023-07-02T11:53:28;4.80;;;2.97;;
5543;SDS011;2795;47.652;13.128;2023-07-02T11:55:55;5.80;;;2.70;;
5543;SDS011;2795;47.652;13.128;2023-07-02T11:58:21;7.23;;;3.10;;
5543;SDS011;2795;47.652;13.128;2023-07-02T12:00:48;3.57;;;2.70;;
5543;SDS011;2795;47.652;13.128;2023-07-02T12:03:15;12.60;;;3.80;;
5543;SDS011;2795;47.652;13.128;2023-07-02T12:05:41;6.43;;;3.17;;
5543;SDS011;2795;47.652;13.128;2023-07-02T12:08:08;4.77;;;3.00;;
5543;SDS011;2795;47.652;13.128;2023-07-02T12:10:35;3.93;;;2.83;;
5543;SDS011;2795;47.652;13.128;2023-07-02T12:13:04;6.20;;;3.17;;
5543;SDS011;2795;47.652;13.128;2023-07-02T12:15:31;6.10;;;3.33;;
5543;SDS011;2795;47.652;13.128;2023-07-02T12:17:57;11.83;;;4.67;;
5543;SDS011;2795;47.652;13.128;2023-07-02T12:20:24;5.70;;;2.77;;
5543;SDS011;2795;47.652;13.128;2023-07-02T12:22:51;5.63;;;3.20;;
5543;SDS011;2795;47.652;13.128;2023-07-02T12:25:17;8.00;;;3.33;;
5543;SDS011;2795;47.652;13.128;2023-07-02T12:27:44;6.53;;;2.83;;
5543;SDS011;2795;47.652;13.128;2023-07-02T12:30:11;9.83;;;3.53;;
5543;SDS011;2795;47.652;13.128;2023-07-02T12:32:38;11.00;;;3.63;;
5543;SDS011;2795;47.652;13.128;2023-07-02T12:35:05;6.53;;;3.23;;
5543;SDS011;2795;47.652;13.128;2023-07-02T12:37:31;8.93;;;3.60;;
5543;SDS011;2795;47.652;13.128;2023-07-02T12:39:58;6.80;;;3.40;;
5543;SDS011;2795;47.652;13.128;2023-07-02T12:42:25;6.10;;;2.90;;
5543;SDS011;2795;47.652;13.128;2023-07-02T12:44:52;6.03;;;3.20;;
5543;SDS011;2795;47.652;13.128;2023-07-02T12:47:18;9.73;;;3.73;;
5543;SDS011;2795;47.652;13.128;2023-07-02T12:49:45;6.90;;;3.40;;
5543;SDS011;2795;47.652;13.128;2023-07-02T12:52:11;10.47;;;4.10;;
5543;SDS011;2795;47.652;13.128;2023-07-02T12:54:38;11.50;;;3.97;;
5543;SDS011;2795;47.652;13.128;2023-07-02T12:57:05;9.53;;;3.90;;
5543;SDS011;2795;47.652;13.128;2023-07-02T12:59:32;7.20;;;3.60;;
5543;SDS011;2795;47.652;13.128;2023-07-02T13:01:58;12.80;;;4.60;;
5543;SDS011;2795;47.652;13.128;2023-07-02T13:04:25;12.33;;;4.20;;
5543;SDS011;2795;47.652;13.128;2023-07-02T13:06:55;10.10;;;4.07;;
5543;SDS011;2795;47.652;13.128;2023-07-02T13:09:21;8.57;;;3.90;;
5543;SDS011;2795;47.652;13.128;2023-07-02T13:11:48;6.90;;;3.70;;
5543;SDS011;2795;47.652;13.128;2023-07-02T13:14:16;8.33;;;4.00;;
5543;SDS011;2795;47.652;13.128;2023-07-02T13:16:48;5.60;;;3.53;;
5543;SDS011;2795;47.652;13.128;2023-07-02T13:19:15;5.87;;;3.13;;
5543;SDS011;2795;47.652;13.128;2023-07-02T13:21:42;5.40;;;3.27;;
5543;SDS011;2795;47.652;13.128;2023-07-02T13:24:08;8.17;;;3.90;;
5543;SDS011;2795;47.652;13.128;2023-07-02T13:26:35;6.53;;;4.07;;
5543;SDS011;2795;47.652;13.128;2023-07-02T13:29:01;7.07;;;4.10;;
5543;SDS011;2795;47.652;13.128;2023-07-02T13:31:28;11.07;;;4.43;;
5543;SDS011;2795;47.652;13.128;2023-07-02T13:33:55;14.00;;;5.07;;
5543;SDS011;2795;47.652;13.128;2023-07-02T13:36:21;10.13;;;4.27;;
5543;SDS011;2795;47.652;13.128;2023-07-02T13:38:48;5.47;;;3.87;;
5543;SDS011;2795;47.652;13.128;2023-07-02T13:41:15;8.97;;;4.70;;
5543;SDS011;2795;47.652;13.128;2023-07-02T13:43:42;8.53;;;4.10;;
5543;SDS011;2795;47.652;13.128;2023-07-02T13:46:08;7.77;;;4.57;;
5543;SDS011;2795;47.652;13.128;2023-07-02T13:48:35;12.20;;;5.30;;
5543;SDS011;2795;47.652;13.128;2023-07-02T13:51:02;10.37;;;4.97;;
5543;SDS011;2795;47.652;13.128;2023-07-02T13:53:28;8.80;;;4.80;;
5543;SDS011;2795;47.652;13.128;2023-07-02T13:55:55;11.13;;;4.63;;
5543;SDS011;2795;47.652;13.128;2023-07-02T13:58:22;10.63;;;5.00;;
5543;SDS011;2795;47.652;13.128;2023-07-02T14:00:55;6.00;;;4.07;;
5543;SDS011;2795;47.652;13.128;2023-07-02T14:03:23;13.47;;;4.70;;
5543;SDS011;2795;47.652;13.128;2023-07-02T14:05:50;13.27;;;4.87;;
5543;SDS011;2795;47.652;13.128;2023-07-02T14:08:17;13.83;;;5.73;;
5543;SDS011;2795;47.652;13.128;2023-07-02T14:10:44;10.47;;;4.73;;
5543;SDS011;2795;47.652;13.128;2023-07-02T14:13:10;8.67;;;4.30;;
5543;SDS011;2795;47.652;13.128;2023-07-02T14:15:37;12.20;;;5.00;;
5543;SDS011;2795;47.652;13.128;2023-07-02T14:18:04;11.23;;;5.13;;
5543;SDS011;2795;47.652;13.128;2023-07-02T14:20:30;6.90;;;4.40;;
5543;SDS011;2795;47.652;13.128;2023-07-02T14:22:57;15.13;;;5.77;;
5543;SDS011;2795;47.652;13.128;2023-07-02T14:25:24;10.03;;;4.53;;
5543;SDS011;2795;47.652;13.128;2023-07-02T14:28:06;8.57;;;4.53;;
5543;SDS011;2795;47.652;13.128;2023-07-02T14:30:33;8.80;;;4.47;;
5543;SDS011;2795;47.652;13.128;2023-07-02T14:33:00;9.83;;;4.90;;
5543;SDS011;2795;47.652;13.128;2023-07-02T14:35:26;7.80;;;4.70;;
5543;SDS011;2795;47.652;13.128;2023-07-02T14:37:54;11.87;;;5.27;;
5543;SDS011;2795;47.652;13.128;2023-07-02T14:40:21;10.90;;;4.73;;
5543;SDS011;2795;47.652;13.128;2023-07-02T14:42:47;10.40;;;5.03;;
5543;SDS011;2795;47.652;13.128;2023-07-02T14:45:14;11.00;;;5.00;;
5543;SDS011;2795;47.652;13.128;2023-07-02T14:47:40;10.63;;;6.00;;
5543;SDS011;2795;47.652;13.128;2023-07-02T14:50:07;7.57;;;4.53;;
5543;SDS011;2795;47.652;13.128;2023-07-02T14:52:34;7.37;;;4.30;;
5543;SDS011;2795;47.652;13.128;2023-07-02T14:55:00;14.23;;;5.50;;
5543;SDS011;2795;47.652;13.128;2023-07-02T14:57:27;7.63;;;5.00;;
5543;SDS011;2795;47.652;13.128;2023-07-02T14:59:54;13.63;;;5.73;;